Photometre #648[NE_1.6] OHP_OBSERVATOIRE AOT

File : 20220926_648.hum

26/09/2022,06:18:29,TEMP=9.7,BA=5.60,STAT.A=3.0,ExtBa=13.92
26/09/2022,06:22:05,TEMP=10.2,BA=5.60,STAT.A=3.0,ExtBa=13.85
26/09/2022,06:26:17,TEMP=10.4,BA=5.60,STAT.A=3.0,ExtBa=13.81
26/09/2022,06:31:16,TEMP=10.7,BA=5.60,STAT.A=3.0,ExtBa=13.76
26/09/2022,06:37:18,TEMP=11.1,BA=5.60,STAT.A=3.0,ExtBa=13.71
26/09/2022,06:44:44,TEMP=11.5,BA=5.60,STAT.A=3.0,ExtBa=13.78
26/09/2022,06:54:09,TEMP=12.0,BA=5.60,STAT.B=3.0,ExtBa=13.83
26/09/2022,07:05:21,TEMP=12.9,BA=5.56,STAT.A=3.0,ExtBa=12.91
26/09/2022,07:07:27,TEMP=13.2,BA=5.56,STAT.A=3.0,ExtBa=13.02
26/09/2022,07:09:35,TEMP=13.4,BA=5.56,STAT.A=3.0,ExtBa=13.09
26/09/2022,07:15:55,TEMP=13.3,BA=5.56,STAT.A=3.0,ExtBa=13.40
26/09/2022,07:23:24,TEMP=13.7,BA=5.60,STAT.C=3.0,ExtBa=13.60
26/09/2022,07:40:21,TEMP=15.1,BA=5.52,STAT.A=3.0,ExtBa=12.89
26/09/2022,07:42:26,TEMP=15.4,BA=5.52,STAT.A=3.0,ExtBa=13.01
26/09/2022,07:54:52,TEMP=16.4,BA=5.60,STAT.A=3.0,ExtBa=13.58
26/09/2022,07:55:15,TEMP=16.4,BA=5.60,STAT.h
26/09/2022,08:10:13,TEMP=18.9,BA=5.60,STAT.A=3.0,ExtBa=13.79
26/09/2022,08:29:14,TEMP=18.7,BA=5.60,STAT.F,ExtBa=13.87
26/09/2022,08:46:13,TEMP=17.6,BA=5.44,STAT.D=3.0,ExtBa=12.91
26/09/2022,08:59:12,TEMP=17.4,BA=5.60,STAT.D=3.0,ExtBa=13.58
26/09/2022,09:14:12,TEMP=17.4,BA=5.60,STAT.D=3.0,ExtBa=13.79
26/09/2022,09:29:14,TEMP=18.2,BA=5.60,STAT.F,ExtBa=13.85
26/09/2022,09:58:05,TEMP=19.3,BA=5.60,STAT.D=3.0,ExtBa=13.57
26/09/2022,10:00:09,TEMP=19.7,BA=5.48,STAT.D=3.0,ExtBa=13.53
26/09/2022,10:14:12,TEMP=19.8,BA=5.60,STAT.D=3.0,ExtBa=13.76
26/09/2022,10:29:14,TEMP=20.7,BA=5.60,STAT.F,ExtBa=13.84
26/09/2022,10:46:13,TEMP=21.4,BA=5.44,STAT.D=3.0,ExtBa=12.93
26/09/2022,10:59:13,TEMP=21.7,BA=5.60,STAT.D=3.0,ExtBa=13.59
26/09/2022,11:14:13,TEMP=21.5,BA=5.60,STAT.D=3.0,ExtBa=13.79
26/09/2022,11:29:14,TEMP=21.4,BA=5.60,STAT.F,ExtBa=13.84
26/09/2022,11:46:13,TEMP=21.2,BA=5.44,STAT.D=3.0,ExtBa=12.92
26/09/2022,11:59:13,TEMP=21.1,BA=5.60,STAT.D=3.0,ExtBa=13.55
26/09/2022,12:14:13,TEMP=21.7,BA=5.60,STAT.D=3.0,ExtBa=13.77
26/09/2022,12:29:14,TEMP=21.8,BA=5.60,STAT.F,ExtBa=13.83
26/09/2022,12:46:21,TEMP=21.6,BA=5.40,STAT.D=3.0,ExtBa=12.92
26/09/2022,12:59:13,TEMP=21.4,BA=5.60,STAT.D=3.0,ExtBa=13.58
26/09/2022,13:14:12,TEMP=21.7,BA=5.60,STAT.D=3.0,ExtBa=13.77
26/09/2022,13:29:14,TEMP=21.8,BA=5.60,STAT.F,ExtBa=13.83
26/09/2022,13:46:06,TEMP=21.5,BA=5.40,STAT.D=3.0,ExtBa=12.93
26/09/2022,13:59:12,TEMP=21.1,BA=5.60,STAT.D=3.0,ExtBa=13.58
26/09/2022,14:14:12,TEMP=21.0,BA=5.60,STAT.D=3.0,ExtBa=13.78
26/09/2022,14:29:13,TEMP=20.7,BA=5.60,STAT.F,ExtBa=13.83
26/09/2022,14:48:11,TEMP=19.9,BA=5.40,STAT.A=3.0,ExtBa=13.00
26/09/2022,15:03:34,TEMP=19.6,BA=5.60,STAT.A=3.0,ExtBa=13.65
26/09/2022,15:16:00,TEMP=19.2,BA=5.60,STAT.A=3.0,ExtBa=13.77
26/09/2022,15:26:19,TEMP=18.8,BA=5.60,STAT.A=3.0,ExtBa=13.81
26/09/2022,15:35:02,TEMP=18.7,BA=5.60,STAT.C=3.0,ExtBa=13.81
26/09/2022,15:52:51,TEMP=17.6,BA=5.40,STAT.A=3.0,ExtBa=12.88
26/09/2022,15:55:00,TEMP=17.6,BA=5.40,STAT.A=3.0,ExtBa=12.97
26/09/2022,15:57:05,TEMP=17.7,BA=5.40,STAT.A=3.0,ExtBa=13.04
26/09/2022,15:59:47,TEMP=17.5,BA=5.40,STAT.A=3.0,ExtBa=13.14
26/09/2022,16:04:17,TEMP=16.9,BA=5.48,STAT.B=3.0,ExtBa=13.33
26/09/2022,16:15:05,TEMP=16.6,BA=5.40,STAT.A=3.0,ExtBa=12.89
26/09/2022,16:21:08,TEMP=16.2,BA=5.60,STAT.A=3.0,ExtBa=13.26
26/09/2022,16:27:10,TEMP=16.0,BA=5.60,STAT.A=3.0,ExtBa=13.44
26/09/2022,16:32:09,TEMP=15.8,BA=5.60,STAT.A=3.0,ExtBa=13.52
26/09/2022,16:36:21,TEMP=15.7,BA=5.60,STAT.A=3.0,ExtBa=13.56
26/09/2022,16:39:57,TEMP=15.6,BA=5.60,STAT.A=3.0,ExtBa=13.58